Atlantic Salvor — WCX9569 — position and weather

sailwx.info

Track history (hours):
 
Tides and Currents Weather Stations Pressure Air Temp Water Temp Dewpoint Dewpoint Depression Visibility Wind Speed Wind Dir Waves Ship Positions

Atlantic Salvor

Owner: DONJON MARINE CO., INC., HILLSIDE, NJ. More information available from US FCC via Universal Licensing System and Coast Guard Vessel Documentation Center.

Last reported at 2017-Oct-17 00:42 UTC. Time now 2017-Nov-20 04:00 UTC.
Position N 25°29' W 080°03'.
Warning: this ship's position is 34 days out of date.

Length 49 m; draft 6 m.

Type: Towing. MMSI: 366744010.

Date/timePositionNaut miles runAvg speedWind from/ knotsBaromVisibWave heightAir tempDewpointWater temp
2017-Oct-17 00:42N 25°29' W 080°03'1 5.5
2017-Oct-17 00:30N 25°31' W 080°03'3 5.4
2017-Oct-17 00:00N 25°33' W 080°03'3 5.5
2017-Oct-16 23:30N 25°36' W 080°03'3 5.6
2017-Oct-16 23:00N 25°39' W 080°03'3 5.7
2017-Oct-16 22:30N 25°42' W 080°03'3 5.9
2017-Oct-16 22:00N 25°45' W 080°03'3 6.1
2017-Oct-16 21:30N 25°48' W 080°02'3 6.3
2017-Oct-16 21:00N 25°51' W 080°02'3 6.0
2017-Oct-16 20:30N 25°54' W 080°02'3 6.5
2017-Oct-16 20:00N 25°57' W 080°01'3 6.2
2017-Oct-16 19:30N 25°60' W 080°01'4 7.6
2017-Oct-16 19:00N 26°04' W 080°00'4 7.1
2017-Oct-16 18:30N 26°07' W 079°60'3 6.9
2017-Oct-16 18:00N 26°11' W 079°59'4 7.8
2017-Oct-16 17:30N 26°15' W 080°00'32 6.7
2017-Oct-16 12:45N 26°46' W 079°58'2 5.8
2017-Oct-16 12:28N 26°48' W 079°58'3 5.8
2017-Oct-16 12:00N 26°51' W 079°58'3 5.7
2017-Oct-16 11:30N 26°53' W 079°59'3 6.2
2017-Oct-16 11:00N 26°57' W 079°60'3 6.7
2017-Oct-16 10:30N 26°60' W 080°00'  
Track history (hours):
 
Tides and Currents Weather Stations Pressure Air Temp Water Temp Dewpoint Dewpoint Depression Visibility Wind Speed Wind Dir Waves Ship Positions

Atlantic Salvor

Owner: DONJON MARINE CO., INC., HILLSIDE, NJ. More information available from US FCC via Universal Licensing System and Coast Guard Vessel Documentation Center.

Last reported at 2017-Oct-17 00:42 UTC. Time now 2017-Nov-20 04:00 UTC.
Position N 25°29' W 080°03'.
Warning: this ship's position is 34 days out of date.

Length 49 m; draft 6 m.

Type: Towing. MMSI: 366744010.

Date/timePositionNaut miles runAvg speedWind from/ knotsBaromVisibWave heightAir tempDewpointWater temp
2017-Oct-17 00:42N 25°29' W 080°03'1 5.5
2017-Oct-17 00:30N 25°31' W 080°03'3 5.4
2017-Oct-17 00:00N 25°33' W 080°03'3 5.5
2017-Oct-16 23:30N 25°36' W 080°03'3 5.6
2017-Oct-16 23:00N 25°39' W 080°03'3 5.7
2017-Oct-16 22:30N 25°42' W 080°03'3 5.9
2017-Oct-16 22:00N 25°45' W 080°03'3 6.1
2017-Oct-16 21:30N 25°48' W 080°02'3 6.3
2017-Oct-16 21:00N 25°51' W 080°02'3 6.0
2017-Oct-16 20:30N 25°54' W 080°02'3 6.5
2017-Oct-16 20:00N 25°57' W 080°01'3 6.2
2017-Oct-16 19:30N 25°60' W 080°01'4 7.6
2017-Oct-16 19:00N 26°04' W 080°00'4 7.1
2017-Oct-16 18:30N 26°07' W 079°60'3 6.9
2017-Oct-16 18:00N 26°11' W 079°59'4 7.8
2017-Oct-16 17:30N 26°15' W 080°00'32 6.7
2017-Oct-16 12:45N 26°46' W 079°58'2 5.8
2017-Oct-16 12:28N 26°48' W 079°58'3 5.8
2017-Oct-16 12:00N 26°51' W 079°58'3 5.7
2017-Oct-16 11:30N 26°53' W 079°59'3 6.2
2017-Oct-16 11:00N 26°57' W 079°60'3 6.7
2017-Oct-16 10:30N 26°60' W 080°00'  

Dump ship's entire track history